NCAR-RAP Real-Time Weather Data

Output produced by METARs form (06 May 2021  16:11 UTC)
found at http://weather.rap.ucar.edu/surface/
 
KEMP 061553Z AUTO 35012G22KT 10SM CLR 16/04 A3030 RMK AO2 SLP259 T01560044
KEMP 061453Z AUTO 35011G19KT 10SM CLR 14/06 A3029 RMK AO2 SLP256 T01440056 51025
KEMP 061353Z AUTO 34012G19KT 10SM CLR 13/06 A3028 RMK AO2 SLP253 T01330061
KEMP 061253Z AUTO 35009G17KT 10SM CLR 12/07 A3025 RMK AO2 SLP244 T01220072
KEMP 061153Z AUTO 33007KT 10SM CLR 10/07 A3021 RMK AO2 SLP229 T01000072 10150 20094 53017
KEMP 061053Z AUTO 30006KT 10SM CLR 10/08 A3018 RMK AO2 SLP220 T01000078
KEMP 060953Z AUTO 28008KT 10SM CLR 12/08 A3016 RMK AO2 SLP211 T01170078
KEMP 060853Z AUTO 28008KT 10SM CLR 12/07 A3016 RMK AO2 SLP211 T01170072 53006
KEMP 060753Z AUTO 27010KT 10SM CLR 13/07 A3015 RMK AO2 SLP206 T01280067
KEMP 060653Z AUTO 27010G19KT 10SM CLR 14/06 A3014 RMK AO2 SLP202 T01440056
KEMP 060553Z AUTO 21004KT 10SM CLR 12/06 A3014 RMK AO2 SLP205 T01220056 10200 20122 402170033 51002
KEMP 060453Z AUTO 19008KT 10SM FEW110 14/06 A3014 RMK AO2 SLP203 T01390056
KEMP 060353Z AUTO 21007KT 10SM CLR 14/06 A3015 RMK AO2 SLP206 T01390056
KEMP 060253Z AUTO 20006KT 10SM CLR 14/06 A3014 RMK AO2 SLP204 T01390056 53011
KEMP 060153Z AUTO 20008KT 10SM CLR 15/04 A3013 RMK AO2 SLP200 T01500044